Cambridge, MA

12:07 AM EDT on August 04, 2015 (GMT -0400)
Central Square | | Change Station
CLOSE
Current Station
Personal Weather Station
Location: Cambridge, MA
Elevation: 24 ft
Nearby Weather Stations

Elev 24 ft 42.36 °N, 71.11 °W | Updated 9 seconds ago

Clear
Clear
76.8 °F
Feels Like 78 °F
N
0.0
Wind Variable Wind from North
Gusts 6.0 mph

Today
High -- | Low -- °F
--% Chance of Precip.
Yesterday
High -- | Low -- °F
Precip. -- in
5:39 AM 8:00 PM
Waning Gibbous, 81% visible
Pressure 29.81 in
Visibility 10.0 miles
Clouds Few 22000 ft
Heat Index 78 °F
Dew Point 68 °F
Humidity 74%
Rainfall 0.00 in
Snow Depth Not available.
UV 0.0 out of 12
Pollen 6.00 out of 12
Air Quality Not available.
Flu Activity Not available.
METAR KBOS 040254Z 21012KT 10SM FEW220 24/19 A2981 RMK AO2 SLP093 T02440194 51012 $

More Conditions Fewer Conditions

Pressure 29.81 in
Visibility 10.0 miles
Clouds Few 22000 ft
Heat Index 78 °F
Dew Point 68 °F
Humidity 74%
Rainfall 0.00 in
Snow Depth Not available.
UV 0.0 out of 12
Pollen 6.00 out of 12
Air Quality Not available.
Flu Activity Not available.
METAR KBOS 040254Z 21012KT 10SM FEW220 24/19 A2981 RMK AO2 SLP093 T02440194 51012 $

More Conditions Fewer Conditions

10-Day Weather Forecast

×

Almanac

Astronomy

Aug. 04, 2015 Rise Set
Actual Time
Civil Twilight
Nautical Twilight
Astronomical Twilight
Moon
Length of Visible Light
Length of Day
Tomorrow will be .
, % of the Moon is Illuminated

Today's Extremes

State Highs State Lows

Community

WunderPhotos

Upload Photos

1,843,853 photos uploaded!

WunderBlogs® & News

Nearby

Air Quality

  Air Quality AQ Index Pollutant
Not available.

Snow Depth

Station Depth Elevation

Earthquake Activity

City Distance Mag. Time & Date
Minimum magnitude displayed is 2.5.

Coastal Water Temperatures

Place Temperature

Stations

Nearby Weather Stations

Station Location Temp. Windchill Dew Point Humidity Wind Precip. Elev Updated Type